Time;durP1;ratioP1;P1;durP2;ratioP2;P2;SDS_P1;SDS_P2;PMS_P1;PMS_P2;Temp;Humidity;BMP_temperature;BMP_pressure;BME280_temperature;BME280_humidity;BME280_pressure;Samples;Min_cycle;Max_cycle;Signal;HPM_P1;HPM_P2
2022/03/26 00:02:22;;;;;;;3.07;1.30;;;20.40;99.90;;;;;;5073241;28;20268;-69
2022/03/26 00:04:49;;;;;;;1.50;1.20;;;20.50;99.90;;;;;;5073292;28;20586;-69
2022/03/26 00:07:17;;;;;;;2.37;1.10;;;20.60;99.90;;;;;;5073170;28;20290;-69
2022/03/26 00:09:44;;;;;;;2.80;1.30;;;20.70;99.90;;;;;;5073159;28;20671;-69
2022/03/26 00:12:12;;;;;;;5.60;1.73;;;20.60;99.90;;;;;;5073051;28;20184;-70
2022/03/26 00:14:39;;;;;;;6.23;1.30;;;20.70;99.90;;;;;;5072878;28;20228;-69
2022/03/26 00:17:07;;;;;;;3.23;1.60;;;20.70;99.90;;;;;;5072822;28;20179;-69
2022/03/26 00:19:34;;;;;;;7.17;1.30;;;20.60;99.90;;;;;;5072958;28;20174;-69
2022/03/26 00:22:01;;;;;;;9.53;2.10;;;20.70;99.90;;;;;;5072935;28;20180;-69
2022/03/26 00:24:29;;;;;;;3.87;1.30;;;20.80;99.90;;;;;;5072992;28;20207;-69
2022/03/26 00:26:56;;;;;;;3.87;1.37;;;21.00;99.90;;;;;;5072882;28;20175;-69
2022/03/26 00:29:23;;;;;;;4.80;1.30;;;21.00;99.90;;;;;;5072958;28;20179;-69
2022/03/26 00:31:50;;;;;;;5.60;1.40;;;21.10;99.90;;;;;;5072960;28;20284;-68
2022/03/26 00:34:18;;;;;;;6.27;1.70;;;21.00;99.90;;;;;;5071505;28;20268;-67
2022/03/26 00:36:45;;;;;;;4.63;1.67;;;21.10;99.90;;;;;;5072516;28;20645;-68
2022/03/26 00:39:13;;;;;;;3.93;1.40;;;21.10;99.90;;;;;;5072738;28;20185;-68
2022/03/26 00:41:40;;;;;;;3.77;1.07;;;20.90;99.90;;;;;;5072586;28;20536;-69
2022/03/26 00:44:07;;;;;;;4.20;1.30;;;20.80;99.90;;;;;;5072796;28;20323;-69
2022/03/26 00:46:35;;;;;;;5.33;1.33;;;20.70;99.90;;;;;;5072585;28;20185;-69
2022/03/26 00:49:02;;;;;;;5.17;1.50;;;20.50;99.90;;;;;;5072637;28;20263;-69
2022/03/26 00:51:29;;;;;;;3.20;1.30;;;20.30;99.90;;;;;;5072783;28;20298;-69
2022/03/26 00:53:57;;;;;;;7.03;1.90;;;20.10;99.90;;;;;;5072644;28;20199;-69
2022/03/26 00:56:24;;;;;;;3.77;1.50;;;19.80;99.90;;;;;;5072401;28;20175;-69
2022/03/26 00:58:51;;;;;;;3.50;1.60;;;19.60;99.90;;;;;;5072763;28;20557;-69
2022/03/26 01:01:19;;;;;;;5.87;2.00;;;19.50;99.90;;;;;;5075185;28;20268;-69
2022/03/26 01:03:46;;;;;;;5.33;1.73;;;19.30;99.90;;;;;;5076362;28;20206;-69
2022/03/26 01:06:14;;;;;;;5.53;1.63;;;19.30;99.90;;;;;;5076295;28;20228;-69
2022/03/26 01:08:42;;;;;;;4.57;1.83;;;19.10;99.90;;;;;;5076386;28;20622;-69
2022/03/26 01:11:09;;;;;;;7.53;2.40;;;19.10;99.90;;;;;;5076104;28;20176;-70
2022/03/26 01:13:38;;;;;;;4.77;1.80;;;19.10;99.90;;;;;;5076075;28;20234;-70
2022/03/26 01:16:07;;;;;;;7.27;2.07;;;19.20;99.90;;;;;;5075904;28;20626;-69
2022/03/26 01:18:34;;;;;;;7.90;2.10;;;19.20;99.90;;;;;;5076304;28;20190;-69
2022/03/26 01:21:02;;;;;;;7.67;2.23;;;19.10;99.90;;;;;;5075399;28;20639;-69
2022/03/26 01:23:29;;;;;;;6.50;2.10;;;19.10;99.90;;;;;;5075945;28;20172;-70
2022/03/26 01:25:59;;;;;;;3.50;1.53;;;19.10;99.90;;;;;;5076066;28;20183;-68
2022/03/26 01:28:26;;;;;;;2.50;2.00;;;19.00;99.90;;;;;;5058292;28;20180;-68
2022/03/26 01:30:54;;;;;;;6.57;1.90;;;19.00;99.90;;;;;;5075875;28;20186;-69
2022/03/26 01:33:21;;;;;;;4.37;2.03;;;19.10;99.90;;;;;;5075792;28;20200;-68
2022/03/26 01:35:49;;;;;;;4.43;2.10;;;19.10;99.90;;;;;;5075518;28;20550;-68
2022/03/26 01:38:17;;;;;;;5.07;2.07;;;19.10;99.90;;;;;;5075850;28;20180;-69
2022/03/26 01:40:44;;;;;;;2.23;1.40;;;19.10;99.90;;;;;;5074929;28;20633;-69
2022/03/26 01:43:11;;;;;;;8.57;2.63;;;19.10;99.90;;;;;;5075755;28;20191;-68
2022/03/26 01:45:38;;;;;;;4.83;2.40;;;19.00;99.90;;;;;;5075171;28;20185;-69
2022/03/26 01:48:06;;;;;;;5.63;2.67;;;19.10;99.90;;;;;;5075589;28;20184;-69
2022/03/26 01:50:34;;;;;;;6.83;2.07;;;19.20;99.90;;;;;;5075401;28;20184;-69
2022/03/26 01:53:01;;;;;;;7.77;2.27;;;19.30;99.90;;;;;;5075696;28;20239;-69
2022/03/26 01:55:29;;;;;;;5.13;1.90;;;19.30;99.90;;;;;;5075665;28;20193;-70
2022/03/26 01:57:57;;;;;;;4.90;2.07;;;19.20;99.90;;;;;;5075242;28;20201;-69
2022/03/26 02:00:24;;;;;;;4.57;2.13;;;19.30;99.90;;;;;;5075156;28;20646;-68
2022/03/26 02:02:52;;;;;;;4.03;1.80;;;19.30;99.90;;;;;;5075174;28;20180;-68
2022/03/26 02:05:21;;;;;;;3.40;2.00;;;19.30;99.90;;;;;;5075241;28;20221;-69
2022/03/26 02:07:51;;;;;;;3.73;1.80;;;19.40;99.90;;;;;;5075346;28;20183;-69
2022/03/26 02:10:19;;;;;;;5.97;2.30;;;19.30;99.90;;;;;;5073702;28;20189;-70
2022/03/26 02:12:47;;;;;;;3.57;1.87;;;19.40;99.90;;;;;;5074877;28;20179;-69
2022/03/26 02:15:16;;;;;;;2.00;1.60;;;19.50;99.90;;;;;;5074844;28;20265;-68
2022/03/26 02:17:44;;;;;;;3.17;1.83;;;19.50;99.90;;;;;;5074953;28;20179;-70
2022/03/26 02:20:13;;;;;;;4.87;1.97;;;19.50;99.90;;;;;;5075063;28;20172;-69
2022/03/26 02:22:41;;;;;;;4.00;2.30;;;19.50;99.90;;;;;;5074958;28;20814;-69
2022/03/26 02:25:10;;;;;;;3.17;1.90;;;19.70;99.90;;;;;;5074534;28;20258;-69
2022/03/26 02:27:37;;;;;;;6.17;2.20;;;19.70;99.90;;;;;;5073502;28;20176;-69
2022/03/26 02:30:06;;;;;;;5.17;2.10;;;19.70;99.90;;;;;;5074712;28;20255;-69
2022/03/26 02:32:34;;;;;;;5.40;2.20;;;19.80;99.90;;;;;;5074577;28;20182;-69
2022/03/26 02:35:01;;;;;;;5.40;1.53;;;19.80;99.90;;;;;;5074434;28;20245;-70
2022/03/26 02:37:30;;;;;;;3.97;1.70;;;19.80;99.90;;;;;;5074527;28;20168;-70
2022/03/26 02:39:58;;;;;;;4.70;1.97;;;20.00;99.90;;;;;;5074515;28;20553;-69
2022/03/26 02:42:25;;;;;;;4.60;1.87;;;20.20;99.90;;;;;;5074492;28;20664;-69
2022/03/26 02:44:52;;;;;;;3.53;1.53;;;20.10;99.90;;;;;;5074484;28;20181;-69
2022/03/26 02:47:20;;;;;;;6.33;1.63;;;20.20;99.90;;;;;;5074501;28;20263;-70
2022/03/26 02:49:47;;;;;;;5.47;1.90;;;20.30;99.90;;;;;;5074324;28;20177;-69
2022/03/26 02:52:14;;;;;;;3.03;1.10;;;20.40;99.90;;;;;;5072941;28;20278;-69
2022/03/26 02:54:42;;;;;;;3.93;1.60;;;20.60;99.90;;;;;;5074125;28;20210;-69
2022/03/26 02:57:10;;;;;;;3.53;1.90;;;20.70;99.90;;;;;;5074061;28;20168;-69
2022/03/26 02:59:37;;;;;;;4.93;1.47;;;20.80;99.90;;;;;;5074478;28;20179;-69
2022/03/26 03:02:07;;;;;;;4.13;1.60;;;20.90;99.90;;;;;;5074092;28;20172;-69
2022/03/26 03:04:34;;;;;;;7.80;1.33;;;21.00;99.90;;;;;;5074091;28;20185;-69
2022/03/26 03:07:02;;;;;;;3.10;1.40;;;21.10;99.90;;;;;;5074043;28;20281;-70
2022/03/26 03:09:30;;;;;;;3.53;1.20;;;21.10;99.90;;;;;;5073947;28;20282;-70
2022/03/26 03:11:58;;;;;;;4.07;1.60;;;21.20;99.90;;;;;;5074058;28;20176;-70
2022/03/26 03:14:26;;;;;;;5.43;1.83;;;21.30;99.90;;;;;;5073547;28;20657;-69
2022/03/26 03:16:53;;;;;;;2.93;1.40;;;21.20;99.90;;;;;;5073763;28;20207;-69
2022/03/26 03:19:20;;;;;;;5.10;1.40;;;21.40;99.90;;;;;;5073840;28;20275;-68
2022/03/26 03:21:47;;;;;;;3.30;1.60;;;21.30;99.90;;;;;;5073619;28;20174;-70
2022/03/26 03:24:15;;;;;;;6.00;2.13;;;21.50;99.90;;;;;;5073309;28;20232;-70
2022/03/26 03:26:42;;;;;;;5.27;1.70;;;21.40;99.90;;;;;;5073529;28;20255;-69
2022/03/26 03:29:09;;;;;;;6.80;1.77;;;21.40;99.90;;;;;;5073613;28;20609;-69
2022/03/26 03:31:37;;;;;;;7.60;1.83;;;21.60;99.90;;;;;;5072210;28;20624;-69
2022/03/26 03:34:04;;;;;;;6.33;1.80;;;21.70;99.90;;;;;;5073568;28;20217;-69
2022/03/26 03:36:32;;;;;;;4.53;1.40;;;21.90;99.90;;;;;;5073428;28;20175;-70
2022/03/26 03:38:59;;;;;;;5.70;1.40;;;22.00;99.90;;;;;;5073647;28;20183;-70
2022/03/26 03:41:26;;;;;;;5.27;1.63;;;22.20;99.90;;;;;;5073419;28;20233;-70
2022/03/26 03:43:53;;;;;;;4.67;1.63;;;22.40;99.90;;;;;;5073456;28;20180;-69
2022/03/26 03:46:21;;;;;;;6.40;1.70;;;22.60;99.90;;;;;;5073352;28;20324;-70
2022/03/26 03:48:48;;;;;;;5.93;1.80;;;22.60;99.90;;;;;;5073540;28;20187;-70
2022/03/26 03:51:15;;;;;;;5.37;1.43;;;22.70;99.90;;;;;;5073580;28;20179;-70
2022/03/26 03:53:43;;;;;;;3.80;1.60;;;22.80;99.90;;;;;;5073356;28;20274;-70
2022/03/26 03:56:10;;;;;;;4.63;1.57;;;22.70;99.90;;;;;;5073035;28;20652;-69
2022/03/26 03:58:37;;;;;;;7.10;1.70;;;22.90;99.90;;;;;;5073613;28;20215;-69
2022/03/26 04:01:05;;;;;;;5.47;1.60;;;22.70;99.90;;;;;;5073633;28;20172;-69
2022/03/26 04:03:32;;;;;;;4.47;1.50;;;22.60;99.90;;;;;;5074776;28;20184;-70
2022/03/26 04:06:00;;;;;;;6.23;1.63;;;22.00;99.90;;;;;;5074591;28;20519;-70
2022/03/26 04:08:28;;;;;;;4.33;1.50;;;21.30;99.90;;;;;;5072991;28;20184;-69
2022/03/26 04:10:55;;;;;;;4.27;1.70;;;20.70;99.90;;;;;;5072649;28;20597;-69
2022/03/26 04:13:22;;;;;;;5.83;1.77;;;20.30;99.90;;;;;;5073258;28;20586;-69
2022/03/26 04:15:50;;;;;;;5.30;1.80;;;19.90;99.90;;;;;;5073134;28;20179;-69
2022/03/26 04:18:17;;;;;;;4.37;1.50;;;19.80;99.90;;;;;;5073255;28;20180;-69
2022/03/26 04:20:44;;;;;;;3.63;1.60;;;19.80;99.90;;;;;;5073256;28;20199;-69
2022/03/26 04:23:12;;;;;;;6.07;2.00;;;19.80;99.90;;;;;;5073286;28;20259;-69
2022/03/26 04:25:39;;;;;;;5.87;2.00;;;19.80;99.90;;;;;;5072986;28;20696;-69
2022/03/26 04:28:07;;;;;;;4.30;1.60;;;19.70;99.90;;;;;;5072872;28;20175;-70
2022/03/26 04:30:34;;;;;;;4.30;1.70;;;19.40;99.90;;;;;;5072896;28;20318;-68
2022/03/26 04:33:01;;;;;;;4.23;2.13;;;19.30;99.90;;;;;;5072875;28;20186;-69
2022/03/26 04:35:28;;;;;;;4.67;2.13;;;19.20;99.90;;;;;;5074366;28;20538;-70
2022/03/26 04:37:56;;;;;;;6.97;1.97;;;19.00;99.90;;;;;;5076867;28;20176;-69
2022/03/26 04:40:28;;;;;;;8.03;2.07;;;19.00;99.90;;;;;;5077157;28;20180;-68
2022/03/26 04:42:56;;;;;;;3.57;1.70;;;18.80;99.90;;;;;;5077009;28;20182;-69
2022/03/26 04:45:24;;;;;;;6.13;1.90;;;18.80;99.90;;;;;;5076963;28;20163;-69
2022/03/26 04:47:51;;;;;;;4.67;1.67;;;18.80;99.90;;;;;;5076748;28;20542;-68
2022/03/26 04:50:19;;;;;;;4.87;1.87;;;18.80;99.90;;;;;;5076652;28;20179;-69
2022/03/26 04:52:48;;;;;;;4.93;2.13;;;18.90;99.90;;;;;;5076595;28;20182;-69
2022/03/26 04:55:15;;;;;;;3.40;1.70;;;18.90;99.90;;;;;;5076544;28;20219;-70
2022/03/26 04:57:44;;;;;;;6.37;1.80;;;18.90;99.90;;;;;;5076520;28;20219;-69
2022/03/26 05:00:13;;;;;;;5.80;2.00;;;18.90;99.90;;;;;;5076616;28;20180;-69
2022/03/26 05:02:41;;;;;;;6.73;1.77;;;18.80;99.90;;;;;;5076471;28;20168;-69
2022/03/26 05:05:10;;;;;;;10.53;1.40;;;18.80;99.90;;;;;;5076331;28;20191;-69
2022/03/26 05:07:46;;;;;;;1.20;1.10;;;18.60;99.90;;;;;;5076421;28;20514;-70
2022/03/26 05:10:24;;;;;;;1.20;0.77;;;18.50;99.90;;;;;;5076425;28;20172;-69
2022/03/26 05:12:53;;;;;;;5.67;1.10;;;18.60;99.90;;;;;;5076012;28;20259;-70
2022/03/26 05:15:23;;;;;;;4.20;1.40;;;18.50;99.90;;;;;;5074981;28;20228;-69
2022/03/26 05:17:51;;;;;;;3.77;1.10;;;18.50;99.90;;;;;;5076211;28;20194;-70
2022/03/26 05:20:19;;;;;;;1.70;1.00;;;18.50;99.90;;;;;;5076199;28;20179;-68
2022/03/26 05:22:48;;;;;;;3.13;1.23;;;18.50;99.90;;;;;;5075991;28;20175;-69
2022/03/26 05:25:16;;;;;;;5.70;1.63;;;18.50;99.90;;;;;;5076115;28;20184;-69
2022/03/26 05:27:48;;;;;;;3.83;1.50;;;18.50;99.90;;;;;;5076022;28;20188;-69
2022/03/26 05:30:17;;;;;;;3.63;1.40;;;18.70;99.90;;;;;;5075866;28;20183;-68
2022/03/26 05:32:45;;;;;;;3.07;1.60;;;18.80;99.90;;;;;;5075946;28;20652;-68
2022/03/26 05:35:16;;;;;;;6.73;1.50;;;18.80;99.90;;;;;;5075700;28;20218;-68
2022/03/26 05:37:45;;;;;;;6.70;1.80;;;18.80;99.90;;;;;;5075756;28;20176;-70
2022/03/26 05:40:16;;;;;;;3.13;1.50;;;18.70;99.90;;;;;;5075075;28;20183;-68
2022/03/26 05:42:45;;;;;;;4.07;1.90;;;18.60;99.90;;;;;;5075310;28;20176;-67
2022/03/26 05:45:14;;;;;;;5.37;1.60;;;18.60;99.90;;;;;;5075584;28;20176;-68
2022/03/26 05:47:42;;;;;;;6.23;1.70;;;18.60;99.90;;;;;;5069855;28;20198;-67
2022/03/26 05:50:14;;;;;;;3.10;1.60;;;18.70;99.90;;;;;;5071365;28;20575;-69
2022/03/26 05:52:41;;;;;;;4.63;2.10;;;18.70;99.90;;;;;;5073540;28;20188;-67
2022/03/26 05:55:10;;;;;;;6.10;2.00;;;18.80;99.90;;;;;;5072510;28;20223;-66
2022/03/26 05:57:37;;;;;;;6.20;2.03;;;18.60;99.90;;;;;;5073940;28;20249;-66
2022/03/26 06:00:06;;;;;;;3.10;1.70;;;18.70;99.90;;;;;;5073588;28;20268;-66
2022/03/26 06:02:34;;;;;;;4.30;1.77;;;18.70;99.90;;;;;;5074122;28;20175;-67
2022/03/26 06:05:02;;;;;;;5.43;2.20;;;18.70;99.90;;;;;;5074095;28;20176;-67
2022/03/26 06:07:29;;;;;;;5.20;2.40;;;18.80;99.90;;;;;;5072868;28;20192;-68
2022/03/26 06:09:56;;;;;;;5.50;1.87;;;18.80;99.90;;;;;;5073279;28;20241;-68
2022/03/26 06:12:24;;;;;;;9.30;1.73;;;18.80;99.90;;;;;;5073751;28;20188;-67
2022/03/26 06:14:51;;;;;;;6.23;2.17;;;18.80;99.90;;;;;;5073571;28;20267;-67
2022/03/26 06:17:19;;;;;;;6.83;2.60;;;18.70;99.90;;;;;;5073279;28;20187;-67
2022/03/26 06:19:47;;;;;;;7.70;2.20;;;18.70;99.90;;;;;;5073643;28;20552;-67
2022/03/26 06:22:14;;;;;;;6.83;2.40;;;18.80;99.90;;;;;;5077188;28;20172;-67
2022/03/26 06:24:42;;;;;;;5.27;2.23;;;18.70;99.90;;;;;;5073297;28;20194;-67
2022/03/26 06:27:09;;;;;;;5.97;2.20;;;18.80;99.90;;;;;;5071898;28;20180;-67
2022/03/26 06:29:36;;;;;;;8.10;2.60;;;18.80;99.90;;;;;;5073227;28;20205;-68
2022/03/26 06:32:05;;;;;;;5.47;2.10;;;18.80;99.90;;;;;;5073017;28;20650;-67
2022/03/26 06:34:32;;;;;;;5.43;2.07;;;18.80;99.90;;;;;;5073436;28;20307;-67
2022/03/26 06:37:00;;;;;;;3.90;1.73;;;18.80;99.90;;;;;;5070984;28;20191;-68
2022/03/26 06:39:27;;;;;;;5.30;1.93;;;18.80;99.90;;;;;;5072906;28;20266;-67
2022/03/26 06:41:55;;;;;;;8.83;2.40;;;18.90;99.90;;;;;;5072651;28;20229;-67
2022/03/26 06:44:23;;;;;;;5.30;1.90;;;18.90;99.90;;;;;;5072593;28;20179;-68
2022/03/26 06:46:51;;;;;;;3.90;1.90;;;18.90;99.90;;;;;;5070351;28;20187;-69
2022/03/26 06:49:18;;;;;;;3.57;1.90;;;18.80;99.90;;;;;;5072081;28;20174;-67
2022/03/26 06:51:47;;;;;;;4.43;1.83;;;18.80;99.90;;;;;;5071968;28;20252;-67
2022/03/26 06:54:15;;;;;;;5.43;2.20;;;18.90;99.90;;;;;;5071178;28;20202;-67
2022/03/26 06:56:44;;;;;;;4.70;1.97;;;18.80;99.90;;;;;;5072559;28;20167;-68
2022/03/26 06:59:12;;;;;;;3.93;1.87;;;18.80;99.90;;;;;;5072117;28;20184;-68
2022/03/26 07:01:39;;;;;;;5.07;1.63;;;18.80;99.90;;;;;;5072351;28;20186;-68
2022/03/26 07:04:07;;;;;;;8.20;1.67;;;18.70;99.90;;;;;;5072987;28;20187;-67
2022/03/26 07:06:35;;;;;;;4.37;1.90;;;18.70;99.90;;;;;;5071422;28;20550;-67
2022/03/26 07:09:03;;;;;;;4.63;1.80;;;18.60;99.90;;;;;;5070375;28;20644;-67
2022/03/26 07:11:30;;;;;;;5.73;1.70;;;18.80;99.90;;;;;;5071050;28;20554;-67
2022/03/26 07:13:58;;;;;;;5.93;1.73;;;18.80;99.90;;;;;;5072088;28;20290;-68
2022/03/26 07:16:26;;;;;;;6.07;1.87;;;18.80;99.90;;;;;;5072283;28;20183;-68
2022/03/26 07:18:55;;;;;;;5.13;1.83;;;18.70;99.90;;;;;;5072356;28;20179;-67
2022/03/26 07:21:23;;;;;;;3.43;1.83;;;18.70;99.90;;;;;;5069256;28;20255;-67
2022/03/26 07:23:51;;;;;;;4.83;2.40;;;18.70;99.90;;;;;;5071916;28;20652;-68
2022/03/26 07:26:19;;;;;;;4.33;1.93;;;18.60;99.90;;;;;;5071629;28;20194;-68
2022/03/26 07:28:47;;;;;;;9.03;2.70;;;18.60;99.90;;;;;;5059588;28;20193;-68
2022/03/26 07:31:15;;;;;;;8.47;2.00;;;18.60;99.90;;;;;;5072397;28;20262;-68
2022/03/26 07:33:42;;;;;;;4.63;2.17;;;18.60;99.90;;;;;;5072041;28;20208;-66
2022/03/26 07:36:10;;;;;;;5.07;1.87;;;18.50;99.90;;;;;;5071783;28;20183;-67
2022/03/26 07:38:38;;;;;;;5.33;1.43;;;18.50;99.90;;;;;;5064430;28;20215;-68
2022/03/26 07:41:07;;;;;;;4.27;1.30;;;18.50;99.90;;;;;;5068703;28;20176;-66
2022/03/26 07:43:35;;;;;;;5.60;1.30;;;18.40;99.90;;;;;;5071621;28;20199;-66
2022/03/26 07:46:03;;;;;;;4.77;1.87;;;18.40;99.90;;;;;;5071993;28;20210;-68
2022/03/26 07:48:31;;;;;;;6.80;1.47;;;18.40;99.90;;;;;;5072004;28;20187;-68
2022/03/26 07:50:58;;;;;;;3.67;1.20;;;18.30;99.90;;;;;;5071551;28;20180;-67
2022/03/26 07:53:29;;;;;;;2.53;1.20;;;18.40;99.90;;;;;;5071244;28;20215;-67
2022/03/26 07:55:57;;;;;;;3.33;1.90;;;18.40;99.90;;;;;;5070382;28;20637;-67
2022/03/26 07:58:25;;;;;;;2.43;1.27;;;18.40;99.90;;;;;;5071845;28;20234;-67
2022/03/26 08:00:53;;;;;;;5.93;1.73;;;18.40;99.90;;;;;;5071063;28;20191;-67
2022/03/26 08:03:21;;;;;;;6.80;2.53;;;18.40;99.90;;;;;;5072110;28;20180;-67
2022/03/26 08:05:48;;;;;;;6.60;1.80;;;18.40;99.90;;;;;;5072011;28;20218;-67
2022/03/26 08:08:16;;;;;;;5.33;1.47;;;18.20;99.90;;;;;;5071232;28;20175;-67
2022/03/26 08:10:44;;;;;;;5.73;1.67;;;18.20;99.90;;;;;;5071213;28;20278;-66
2022/03/26 08:13:12;;;;;;;6.50;2.00;;;18.20;99.90;;;;;;5068298;28;20215;-66
2022/03/26 08:15:39;;;;;;;4.87;1.57;;;18.10;99.90;;;;;;5071012;28;20220;-67
2022/03/26 08:18:08;;;;;;;6.57;1.87;;;18.10;99.90;;;;;;5071037;28;20214;-67
2022/03/26 08:20:38;;;;;;;4.20;1.90;;;18.00;99.90;;;;;;5070685;28;20188;-68
2022/03/26 08:23:06;;;;;;;5.70;2.07;;;18.00;99.90;;;;;;5068633;28;20172;-68
2022/03/26 08:28:20;;;;;;;6.80;1.90;;;18.00;99.90;;;;;;5070818;28;20286;-67
2022/03/26 08:30:50;;;;;;;7.30;1.80;;;18.00;99.90;;;;;;5071880;28;20262;-68
2022/03/26 08:33:18;;;;;;;8.20;2.00;;;18.00;99.90;;;;;;5071502;28;20187;-66
2022/03/26 08:35:46;;;;;;;4.93;1.60;;;18.00;99.90;;;;;;5071522;28;20192;-68
2022/03/26 08:38:13;;;;;;;9.43;2.00;;;18.00;99.90;;;;;;5071296;28;20206;-67
2022/03/26 08:40:44;;;;;;;4.27;1.57;;;18.00;99.90;;;;;;5071888;28;20356;-67
2022/03/26 08:43:13;;;;;;;4.63;2.10;;;17.90;99.90;;;;;;5070229;28;20222;-67
2022/03/26 08:45:40;;;;;;;4.37;2.03;;;17.90;99.90;;;;;;5069907;28;20288;-67
2022/03/26 08:48:08;;;;;;;6.33;2.27;;;17.90;99.90;;;;;;5071343;28;20985;-66
2022/03/26 08:50:36;;;;;;;8.57;2.07;;;17.90;99.90;;;;;;5071428;28;20664;-67
2022/03/26 08:53:04;;;;;;;6.80;2.40;;;18.00;99.90;;;;;;5071359;28;20210;-67
2022/03/26 08:55:32;;;;;;;9.53;3.07;;;17.90;99.90;;;;;;5070339;28;20204;-67
2022/03/26 08:58:00;;;;;;;5.13;2.17;;;18.00;99.90;;;;;;5070058;28;20180;-67
2022/03/26 09:00:27;;;;;;;6.47;2.90;;;18.00;99.90;;;;;;5071129;28;20184;-67
2022/03/26 09:02:56;;;;;;;5.60;2.20;;;18.00;99.90;;;;;;5071180;28;20177;-67
2022/03/26 09:05:24;;;;;;;7.60;2.13;;;18.00;99.90;;;;;;5071604;28;20180;-68
2022/03/26 09:07:52;;;;;;;6.20;2.20;;;17.90;99.90;;;;;;5071016;28;20599;-67
2022/03/26 09:10:20;;;;;;;3.57;1.53;;;17.80;99.90;;;;;;5071072;28;20198;-66
2022/03/26 09:12:48;;;;;;;2.87;1.27;;;17.70;99.90;;;;;;5071223;28;20183;-66
2022/03/26 09:15:16;;;;;;;4.83;1.87;;;17.70;99.90;;;;;;5070941;28;20634;-68
2022/03/26 09:17:44;;;;;;;6.47;1.57;;;17.70;99.90;;;;;;5071383;28;20177;-67
2022/03/26 09:20:12;;;;;;;4.13;1.63;;;17.70;99.90;;;;;;5070875;28;20238;-67
2022/03/26 09:22:40;;;;;;;3.53;1.77;;;17.70;99.90;;;;;;5074082;28;20709;-68
2022/03/26 09:25:08;;;;;;;3.13;1.50;;;17.60;99.90;;;;;;5074236;28;20598;-68
2022/03/26 09:27:36;;;;;;;4.20;1.60;;;17.70;99.90;;;;;;5074677;28;20190;-68
2022/03/26 09:30:06;;;;;;;3.93;1.50;;;17.60;99.90;;;;;;5073531;28;20558;-68
2022/03/26 09:32:34;;;;;;;3.83;1.50;;;17.60;99.90;;;;;;5074833;28;20262;-68
2022/03/26 09:35:02;;;;;;;6.67;1.80;;;17.50;99.90;;;;;;5074740;28;20227;-68
2022/03/26 09:37:29;;;;;;;3.20;1.77;;;17.50;99.90;;;;;;5074094;28;20232;-68
2022/03/26 09:39:57;;;;;;;4.03;1.67;;;17.60;99.90;;;;;;5074279;28;20660;-68
2022/03/26 09:42:27;;;;;;;6.97;1.80;;;17.50;99.90;;;;;;5072617;28;20179;-68
2022/03/26 09:44:57;;;;;;;5.57;1.93;;;17.50;99.90;;;;;;5067096;28;20377;-68
2022/03/26 09:47:25;;;;;;;5.47;2.17;;;17.50;99.90;;;;;;5075275;28;20180;-68
2022/03/26 09:49:52;;;;;;;6.10;2.50;;;17.40;99.90;;;;;;5075456;28;20661;-68
2022/03/26 09:52:24;;;;;;;5.87;2.00;;;17.40;99.90;;;;;;5075483;28;20194;-68
2022/03/26 09:54:52;;;;;;;10.60;3.30;;;17.30;99.90;;;;;;5075179;28;20255;-68
2022/03/26 09:57:20;;;;;;;8.50;3.30;;;17.30;99.90;;;;;;5075467;28;20164;-68
2022/03/26 09:59:48;;;;;;;22.63;8.37;;;17.30;99.90;;;;;;5075388;28;20180;-68
2022/03/26 10:02:16;;;;;;;4.73;2.47;;;17.30;99.90;;;;;;5074722;28;20271;-68
2022/03/26 10:04:44;;;;;;;17.70;7.43;;;17.30;99.90;;;;;;5073718;28;20267;-68
2022/03/26 10:07:13;;;;;;;3.77;2.30;;;17.20;99.90;;;;;;5074240;28;20184;-68
2022/03/26 10:09:48;;;;;;;5.97;2.73;;;17.20;99.90;;;;;;5075189;28;20226;-68
2022/03/26 10:12:24;;;;;;;8.63;3.20;;;17.10;99.90;;;;;;5075327;28;20172;-68
2022/03/26 10:15:04;;;;;;;8.47;3.53;;;17.10;99.90;;;;;;5075040;28;20227;-68
2022/03/26 10:17:38;;;;;;;7.30;2.87;;;17.10;99.90;;;;;;5075108;28;20172;-69
2022/03/26 10:20:08;;;;;;;6.83;3.00;;;17.00;99.90;;;;;;5075050;28;20174;-69
2022/03/26 10:22:37;;;;;;;5.17;2.60;;;17.00;99.90;;;;;;5074826;28;20188;-69
2022/03/26 10:25:31;;;;;;;8.73;3.07;;;16.90;99.90;;;;;;5074452;28;20184;-68
2022/03/26 10:27:59;;;;;;;6.67;3.27;;;16.80;99.90;;;;;;5072938;28;20191;-68
2022/03/26 10:33:30;;;;;;;4.93;2.60;;;16.80;99.90;;;;;;5073233;28;20183;-68
2022/03/26 10:36:02;;;;;;;3.30;2.20;;;16.80;99.90;;;;;;5071267;28;20183;-68
2022/03/26 10:38:42;;;;;;;5.33;2.63;;;16.80;99.90;;;;;;5074231;28;20235;-68
2022/03/26 10:41:11;;;;;;;4.60;2.43;;;16.80;99.90;;;;;;5072592;28;20266;-68
2022/03/26 10:43:41;;;;;;;6.13;2.23;;;16.90;99.90;;;;;;5074063;28;20183;-69
2022/03/26 10:46:09;;;;;;;5.50;2.03;;;16.90;99.90;;;;;;5071407;28;20264;-69
2022/03/26 10:48:38;;;;;;;9.67;2.60;;;16.90;99.90;;;;;;5074098;28;20263;-69
2022/03/26 10:51:17;;;;;;;5.20;2.30;;;16.80;99.90;;;;;;5074095;28;20263;-69
2022/03/26 10:53:47;;;;;;;5.27;2.30;;;16.80;99.90;;;;;;5074409;28;20207;-69
2022/03/26 10:56:15;;;;;;;6.70;2.30;;;16.90;99.90;;;;;;5074206;28;20179;-69
2022/03/26 10:58:44;;;;;;;6.30;2.80;;;16.90;99.90;;;;;;5073977;28;20180;-69
2022/03/26 11:01:14;;;;;;;6.53;2.90;;;16.90;99.90;;;;;;5073352;28;20194;-67
2022/03/26 11:03:42;;;;;;;6.40;3.10;;;16.90;99.90;;;;;;5074194;28;20210;-67
2022/03/26 11:06:11;;;;;;;6.93;3.10;;;16.90;99.90;;;;;;5074040;28;20176;-68
2022/03/26 11:08:41;;;;;;;6.40;2.73;;;16.80;99.90;;;;;;5074089;28;20172;-68
2022/03/26 11:11:11;;;;;;;6.03;2.53;;;16.80;99.90;;;;;;5073981;28;20646;-68
2022/03/26 11:13:48;;;;;;;4.20;1.90;;;16.80;99.90;;;;;;5073697;28;20228;-69
2022/03/26 11:16:40;;;;;;;6.10;2.53;;;16.80;99.90;;;;;;5073802;28;20180;-69
2022/03/26 11:19:23;;;;;;;4.90;2.00;;;16.80;99.90;;;;;;5072818;28;20184;-69
2022/03/26 11:22:27;;;;;;;4.97;2.17;;;16.80;99.90;;;;;;5082034;28;20188;-69
2022/03/26 11:25:16;;;;;;;7.40;2.43;;;16.80;99.90;;;;;;5073780;28;20183;-69
2022/03/26 11:28:24;;;;;;;8.60;2.17;;;16.80;99.90;;;;;;5074223;28;20174;-69
2022/03/26 11:31:00;;;;;;;7.57;2.40;;;16.80;99.90;;;;;;5051553;28;20272;-67
2022/03/26 11:33:36;;;;;;;11.47;2.93;;;16.90;99.90;;;;;;5034832;28;20180;-69
2022/03/26 11:36:07;;;;;;;5.20;1.97;;;16.90;99.90;;;;;;5065447;28;20248;-69
2022/03/26 11:38:35;;;;;;;3.77;2.10;;;16.90;99.90;;;;;;5073607;28;20173;-69
2022/03/26 11:41:08;;;;;;;4.03;2.00;;;16.80;99.90;;;;;;5072229;28;20554;-68
2022/03/26 11:43:45;;;;;;;4.60;2.00;;;16.80;99.90;;;;;;5073146;28;20168;-67
2022/03/26 11:52:11;;;;;;;5.57;2.37;;;16.70;99.90;;;;;;5073903;28;20664;-67
2022/03/26 11:54:39;;;;;;;6.70;2.37;;;16.70;99.90;;;;;;5072008;28;20215;-67
2022/03/26 11:57:18;;;;;;;6.30;2.47;;;16.70;99.90;;;;;;5073046;28;20246;-67
2022/03/26 11:59:46;;;;;;;5.73;2.10;;;16.70;99.90;;;;;;5073256;28;20168;-67
2022/03/26 12:02:28;;;;;;;4.50;2.57;;;16.70;99.90;;;;;;5073150;28;20270;-67
2022/03/26 12:06:35;;;;;;;5.87;2.10;;;16.60;99.90;;;;;;5073359;28;20177;-67
2022/03/26 12:07:48;;;;;;;6.07;2.23;;;16.60;99.90;;;;;;5073289;28;20233;-67
2022/03/26 12:10:19;;;;;;;7.87;1.87;;;16.60;99.90;;;;;;5073086;28;20191;-68
2022/03/26 12:12:52;;;;;;;11.70;2.73;;;16.50;99.90;;;;;;5073017;28;20172;-68
2022/03/26 12:15:19;;;;;;;6.43;2.23;;;16.60;99.90;;;;;;5071785;28;20760;-68
2022/03/26 12:17:48;;;;;;;4.60;1.90;;;16.50;99.90;;;;;;5073196;28;20175;-69
2022/03/26 12:20:48;;;;;;;8.10;2.30;;;16.50;99.90;;;;;;5072781;28;20540;-69
2022/03/26 12:23:16;;;;;;;6.20;2.43;;;16.50;99.90;;;;;;5073693;28;20179;-69
2022/03/26 12:25:54;;;;;;;5.03;1.70;;;16.40;99.90;;;;;;5073435;28;20179;-69
2022/03/26 12:28:33;;;;;;;7.87;2.27;;;16.40;99.90;;;;;;5072979;28;20644;-67
2022/03/26 12:31:06;;;;;;;5.60;2.47;;;16.50;99.90;;;;;;5072913;28;20629;-67
2022/03/26 12:33:54;;;;;;;3.43;1.97;;;16.50;99.90;;;;;;5072899;28;20183;-67
2022/03/26 12:36:23;;;;;;;4.17;2.27;;;16.50;99.90;;;;;;5072800;28;20538;-68
2022/03/26 12:38:53;;;;;;;6.67;2.37;;;16.40;99.90;;;;;;5073185;28;20179;-68
2022/03/26 12:41:21;;;;;;;8.63;2.20;;;16.40;99.90;;;;;;5071624;28;20179;-68
2022/03/26 12:43:59;;;;;;;4.50;1.90;;;16.40;99.90;;;;;;5072959;28;20208;-68
2022/03/26 12:46:38;;;;;;;3.97;1.80;;;16.40;99.90;;;;;;5072907;28;20176;-68
2022/03/26 12:49:19;;;;;;;7.07;2.07;;;16.40;99.90;;;;;;5072134;28;20710;-67
2022/03/26 12:51:55;;;;;;;4.77;2.27;;;16.50;99.90;;;;;;5071222;28;20194;-67
2022/03/26 12:54:24;;;;;;;8.93;2.27;;;16.50;99.90;;;;;;5072500;28;20221;-68
2022/03/26 12:56:53;;;;;;;5.47;2.20;;;16.60;99.90;;;;;;5073359;28;20641;-68
2022/03/26 12:59:20;;;;;;;5.80;2.27;;;16.60;99.90;;;;;;5076409;28;20175;-68
2022/03/26 13:01:55;;;;;;;5.70;2.13;;;16.70;99.90;;;;;;5076695;28;20193;-68
2022/03/26 13:04:23;;;;;;;9.73;1.97;;;16.70;99.90;;;;;;5076402;28;20171;-68
2022/03/26 13:06:58;;;;;;;9.67;2.00;;;16.80;99.90;;;;;;5076381;28;20587;-68
2022/03/26 13:09:32;;;;;;;6.40;1.83;;;16.80;99.90;;;;;;5075979;28;20187;-68